sensor_id;sensor_type;location;lat;lon;timestamp;temperature;humidity
47368;DHT22;34646;47.964;7.982;2023-06-26T00:07:49;23.00;83.40
47368;DHT22;34646;47.964;7.982;2023-06-26T00:13:50;22.70;83.10
47368;DHT22;34646;47.964;7.982;2023-06-26T00:19:51;22.80;83.10
47368;DHT22;34646;47.964;7.982;2023-06-26T00:25:51;22.50;82.80
47368;DHT22;34646;47.964;7.982;2023-06-26T00:31:52;23.00;82.80
47368;DHT22;34646;47.964;7.982;2023-06-26T00:37:53;22.80;82.70
47368;DHT22;34646;47.964;7.982;2023-06-26T00:49:55;22.80;82.50
47368;DHT22;34646;47.964;7.982;2023-06-26T00:55:56;22.60;82.20
47368;DHT22;34646;47.964;7.982;2023-06-26T01:01:56;22.50;82.20
47368;DHT22;34646;47.964;7.982;2023-06-26T01:07:58;22.40;82.10
47368;DHT22;34646;47.964;7.982;2023-06-26T01:14:00;22.40;82.00
47368;DHT22;34646;47.964;7.982;2023-06-26T01:20:04;22.70;82.00
47368;DHT22;34646;47.964;7.982;2023-06-26T01:32:15;22.90;82.20
47368;DHT22;34646;47.964;7.982;2023-06-26T01:38:20;23.00;82.60
47368;DHT22;34646;47.964;7.982;2023-06-26T01:44:34;22.90;82.00
47368;DHT22;34646;47.964;7.982;2023-06-26T01:50:36;22.60;81.90
47368;DHT22;34646;47.964;7.982;2023-06-26T01:56:40;22.80;82.00
47368;DHT22;34646;47.964;7.982;2023-06-26T02:02:42;22.90;82.10
47368;DHT22;34646;47.964;7.982;2023-06-26T02:08:43;22.70;82.00
47368;DHT22;34646;47.964;7.982;2023-06-26T02:14:43;22.60;81.80
47368;DHT22;34646;47.964;7.982;2023-06-26T02:20:45;22.90;73.30
47368;DHT22;34646;47.964;7.982;2023-06-26T02:32:49;22.70;81.90
47368;DHT22;34646;47.964;7.982;2023-06-26T02:38:52;22.80;82.00
47368;DHT22;34646;47.964;7.982;2023-06-26T02:44:53;22.40;81.80
47368;DHT22;34646;47.964;7.982;2023-06-26T02:50:54;22.50;81.80
47368;DHT22;34646;47.964;7.982;2023-06-26T02:57:00;22.90;82.00
47368;DHT22;34646;47.964;7.982;2023-06-26T03:03:04;22.50;81.80
47368;DHT22;34646;47.964;7.982;2023-06-26T03:09:04;22.90;81.90
47368;DHT22;34646;47.964;7.982;2023-06-26T03:15:06;22.80;73.40
47368;DHT22;34646;47.964;7.982;2023-06-26T03:21:08;22.90;73.70
47368;DHT22;34646;47.964;7.982;2023-06-26T03:27:09;22.80;82.00
47368;DHT22;34646;47.964;7.982;2023-06-26T03:33:11;22.80;81.80
47368;DHT22;34646;47.964;7.982;2023-06-26T03:39:12;22.30;81.40
47368;DHT22;34646;47.964;7.982;2023-06-26T03:45:12;22.20;78.50
47368;DHT22;34646;47.964;7.982;2023-06-26T03:51:14;22.10;80.30
47368;DHT22;34646;47.964;7.982;2023-06-26T03:57:15;21.80;81.60
47368;DHT22;34646;47.964;7.982;2023-06-26T04:03:16;21.30;82.20
47368;DHT22;34646;47.964;7.982;2023-06-26T04:09:17;21.40;83.10
47368;DHT22;34646;47.964;7.982;2023-06-26T04:21:20;21.00;82.90
47368;DHT22;34646;47.964;7.982;2023-06-26T04:27:20;21.40;83.80
47368;DHT22;34646;47.964;7.982;2023-06-26T04:39:22;21.60;83.30
47368;DHT22;34646;47.964;7.982;2023-06-26T04:45:23;21.40;83.40
47368;DHT22;34646;47.964;7.982;2023-06-26T04:51:25;21.40;83.00
47368;DHT22;34646;47.964;7.982;2023-06-26T04:57:27;21.40;82.90
47368;DHT22;34646;47.964;7.982;2023-06-26T05:03:28;21.80;82.70
47368;DHT22;34646;47.964;7.982;2023-06-26T05:09:28;22.10;82.00
47368;DHT22;34646;47.964;7.982;2023-06-26T05:21:30;22.00;82.80
47368;DHT22;34646;47.964;7.982;2023-06-26T05:27:31;22.20;74.30
47368;DHT22;34646;47.964;7.982;2023-06-26T05:33:35;22.00;82.80
47368;DHT22;34646;47.964;7.982;2023-06-26T05:39:36;22.30;83.00
47368;DHT22;34646;47.964;7.982;2023-06-26T05:45:37;22.10;83.00
47368;DHT22;34646;47.964;7.982;2023-06-26T05:57:39;22.40;75.50
47368;DHT22;34646;47.964;7.982;2023-06-26T06:03:40;22.80;83.70
47368;DHT22;34646;47.964;7.982;2023-06-26T06:09:41;22.60;83.70
47368;DHT22;34646;47.964;7.982;2023-06-26T06:15:42;22.70;83.80
47368;DHT22;34646;47.964;7.982;2023-06-26T06:21:43;22.20;83.60
47368;DHT22;34646;47.964;7.982;2023-06-26T06:27:44;22.70;83.90
47368;DHT22;34646;47.964;7.982;2023-06-26T06:33:45;22.40;83.80
47368;DHT22;34646;47.964;7.982;2023-06-26T06:39:45;22.60;83.90
47368;DHT22;34646;47.964;7.982;2023-06-26T06:45:46;22.90;84.10
47368;DHT22;34646;47.964;7.982;2023-06-26T06:57:48;22.70;79.10
47368;DHT22;34646;47.964;7.982;2023-06-26T07:03:49;22.90;84.10
47368;DHT22;34646;47.964;7.982;2023-06-26T07:09:49;22.50;84.00
47368;DHT22;34646;47.964;7.982;2023-06-26T07:15:50;22.20;83.90
47368;DHT22;34646;47.964;7.982;2023-06-26T07:21:51;22.60;84.20
47368;DHT22;34646;47.964;7.982;2023-06-26T07:27:52;22.50;84.20
47368;DHT22;34646;47.964;7.982;2023-06-26T07:39:53;22.60;84.30
47368;DHT22;34646;47.964;7.982;2023-06-26T07:45:54;22.40;84.30
47368;DHT22;34646;47.964;7.982;2023-06-26T07:51:55;22.80;84.60
47368;DHT22;34646;47.964;7.982;2023-06-26T07:57:55;22.70;84.50
47368;DHT22;34646;47.964;7.982;2023-06-26T08:03:56;22.80;84.50
47368;DHT22;34646;47.964;7.982;2023-06-26T08:09:57;22.50;84.50
47368;DHT22;34646;47.964;7.982;2023-06-26T08:15:57;22.40;84.40
47368;DHT22;34646;47.964;7.982;2023-06-26T08:21:58;23.00;84.80
47368;DHT22;34646;47.964;7.982;2023-06-26T08:27:59;22.60;84.60
47368;DHT22;34646;47.964;7.982;2023-06-26T08:34:00;22.70;79.10
47368;DHT22;34646;47.964;7.982;2023-06-26T08:40:01;22.50;84.50
47368;DHT22;34646;47.964;7.982;2023-06-26T08:46:02;22.90;84.80
47368;DHT22;34646;47.964;7.982;2023-06-26T08:52:13;23.00;84.80
47368;DHT22;34646;47.964;7.982;2023-06-26T08:58:14;22.50;84.60
47368;DHT22;34646;47.964;7.982;2023-06-26T09:04:15;22.70;84.70
47368;DHT22;34646;47.964;7.982;2023-06-26T09:10:16;23.00;85.00
47368;DHT22;34646;47.964;7.982;2023-06-26T09:16:17;22.50;85.10
47368;DHT22;34646;47.964;7.982;2023-06-26T09:28:19;22.50;85.20
47368;DHT22;34646;47.964;7.982;2023-06-26T09:34:19;23.00;85.50
47368;DHT22;34646;47.964;7.982;2023-06-26T09:40:21;22.70;85.30
47368;DHT22;34646;47.964;7.982;2023-06-26T09:46:26;23.10;85.60
47368;DHT22;34646;47.964;7.982;2023-06-26T09:52:27;22.40;85.20
47368;DHT22;34646;47.964;7.982;2023-06-26T09:58:30;23.00;85.50
47368;DHT22;34646;47.964;7.982;2023-06-26T10:04:32;22.50;85.20
47368;DHT22;34646;47.964;7.982;2023-06-26T10:10:37;22.90;85.40
47368;DHT22;34646;47.964;7.982;2023-06-26T10:16:39;22.50;85.30
47368;DHT22;34646;47.964;7.982;2023-06-26T10:22:45;22.70;85.50
47368;DHT22;34646;47.964;7.982;2023-06-26T10:28:47;23.10;85.70
47368;DHT22;34646;47.964;7.982;2023-06-26T10:34:51;23.10;85.80
47368;DHT22;34646;47.964;7.982;2023-06-26T10:40:52;22.50;85.50
47368;DHT22;34646;47.964;7.982;2023-06-26T10:46:54;22.90;85.80
47368;DHT22;34646;47.964;7.982;2023-06-26T10:59:28;22.50;85.50
47368;DHT22;34646;47.964;7.982;2023-06-26T11:05:32;22.50;85.50
47368;DHT22;34646;47.964;7.982;2023-06-26T11:17:53;22.90;85.80
47368;DHT22;34646;47.964;7.982;2023-06-26T11:23:56;22.70;85.70
47368;DHT22;34646;47.964;7.982;2023-06-26T11:30:00;22.90;81.20
47368;DHT22;34646;47.964;7.982;2023-06-26T11:36:10;22.70;85.90
47368;DHT22;34646;47.964;7.982;2023-06-26T11:42:11;22.70;86.10
47368;DHT22;34646;47.964;7.982;2023-06-26T11:48:12;22.80;86.10
47368;DHT22;34646;47.964;7.982;2023-06-26T11:54:12;22.60;86.20
47368;DHT22;34646;47.964;7.982;2023-06-26T12:00:15;23.00;86.60
47368;DHT22;34646;47.964;7.982;2023-06-26T12:06:16;23.10;86.70
47368;DHT22;34646;47.964;7.982;2023-06-26T12:12:18;23.00;76.60
47368;DHT22;34646;47.964;7.982;2023-06-26T12:18:19;23.10;86.80
47368;DHT22;34646;47.964;7.982;2023-06-26T12:24:21;22.70;86.70
47368;DHT22;34646;47.964;7.982;2023-06-26T12:30:22;23.10;86.90
47368;DHT22;34646;47.964;7.982;2023-06-26T12:36:23;22.90;86.80
47368;DHT22;34646;47.964;7.982;2023-06-26T12:42:26;22.70;86.80
47368;DHT22;34646;47.964;7.982;2023-06-26T12:48:40;23.00;86.90
47368;DHT22;34646;47.964;7.982;2023-06-26T12:54:44;22.70;86.90
47368;DHT22;34646;47.964;7.982;2023-06-26T13:00:47;22.90;86.80
47368;DHT22;34646;47.964;7.982;2023-06-26T13:12:48;22.90;86.70
47368;DHT22;34646;47.964;7.982;2023-06-26T13:18:49;22.50;86.50
47368;DHT22;34646;47.964;7.982;2023-06-26T13:24:50;23.00;86.80
47368;DHT22;34646;47.964;7.982;2023-06-26T13:36:52;22.70;86.60
47368;DHT22;34646;47.964;7.982;2023-06-26T13:42:52;23.00;86.80
47368;DHT22;34646;47.964;7.982;2023-06-26T13:48:53;22.50;86.60
47368;DHT22;34646;47.964;7.982;2023-06-26T13:54:54;22.70;86.60
47368;DHT22;34646;47.964;7.982;2023-06-26T14:00:54;23.30;86.90
47368;DHT22;34646;47.964;7.982;2023-06-26T14:06:55;22.90;86.70
47368;DHT22;34646;47.964;7.982;2023-06-26T14:12:56;22.70;86.60
47368;DHT22;34646;47.964;7.982;2023-06-26T14:18:56;23.20;86.90
47368;DHT22;34646;47.964;7.982;2023-06-26T14:24:57;22.90;86.70
47368;DHT22;34646;47.964;7.982;2023-06-26T14:30:58;22.80;86.60
47368;DHT22;34646;47.964;7.982;2023-06-26T14:36:59;22.80;86.50
47368;DHT22;34646;47.964;7.982;2023-06-26T14:42:59;22.60;86.40
47368;DHT22;34646;47.964;7.982;2023-06-26T14:49:02;22.90;78.00
47368;DHT22;34646;47.964;7.982;2023-06-26T14:55:03;22.70;86.50
47368;DHT22;34646;47.964;7.982;2023-06-26T15:01:04;22.80;86.60
47368;DHT22;34646;47.964;7.982;2023-06-26T15:07:05;22.70;86.50
47368;DHT22;34646;47.964;7.982;2023-06-26T15:19:08;23.40;86.90
47368;DHT22;34646;47.964;7.982;2023-06-26T15:25:09;22.80;86.50
47368;DHT22;34646;47.964;7.982;2023-06-26T15:31:11;22.70;86.50
47368;DHT22;34646;47.964;7.982;2023-06-26T15:37:11;22.60;80.20
47368;DHT22;34646;47.964;7.982;2023-06-26T15:43:12;22.90;86.50
47368;DHT22;34646;47.964;7.982;2023-06-26T15:49:13;23.30;86.80
47368;DHT22;34646;47.964;7.982;2023-06-26T15:55:14;23.40;86.80
47368;DHT22;34646;47.964;7.982;2023-06-26T16:01:15;23.10;78.20
47368;DHT22;34646;47.964;7.982;2023-06-26T16:19:20;22.90;86.40
47368;DHT22;34646;47.964;7.982;2023-06-26T16:25:21;23.00;79.10
47368;DHT22;34646;47.964;7.982;2023-06-26T16:37:23;22.70;86.60
47368;DHT22;34646;47.964;7.982;2023-06-26T16:43:23;22.80;86.70
47368;DHT22;34646;47.964;7.982;2023-06-26T16:49:25;23.50;87.30
47368;DHT22;34646;47.964;7.982;2023-06-26T16:55:26;23.40;87.30
47368;DHT22;34646;47.964;7.982;2023-06-26T17:01:27;23.40;87.40
47368;DHT22;34646;47.964;7.982;2023-06-26T17:07:28;22.90;87.10
47368;DHT22;34646;47.964;7.982;2023-06-26T17:13:29;23.60;78.80
47368;DHT22;34646;47.964;7.982;2023-06-26T17:19:30;23.30;87.30
47368;DHT22;34646;47.964;7.982;2023-06-26T17:25:32;23.10;87.20
47368;DHT22;34646;47.964;7.982;2023-06-26T17:31:34;23.20;87.40
47368;DHT22;34646;47.964;7.982;2023-06-26T17:37:35;23.00;87.30
47368;DHT22;34646;47.964;7.982;2023-06-26T17:43:35;23.20;87.70
47368;DHT22;34646;47.964;7.982;2023-06-26T17:49:36;23.20;87.60
47368;DHT22;34646;47.964;7.982;2023-06-26T17:55:37;22.90;87.40
47368;DHT22;34646;47.964;7.982;2023-06-26T18:01:38;23.40;87.60
47368;DHT22;34646;47.964;7.982;2023-06-26T18:07:38;23.20;87.60
47368;DHT22;34646;47.964;7.982;2023-06-26T18:13:40;23.10;87.60
47368;DHT22;34646;47.964;7.982;2023-06-26T18:19:41;23.50;87.70
47368;DHT22;34646;47.964;7.982;2023-06-26T18:25:41;23.60;87.90
47368;DHT22;34646;47.964;7.982;2023-06-26T18:31:42;22.80;87.40
47368;DHT22;34646;47.964;7.982;2023-06-26T18:43:44;23.30;87.70
47368;DHT22;34646;47.964;7.982;2023-06-26T18:55:49;23.50;87.80
47368;DHT22;34646;47.964;7.982;2023-06-26T19:01:49;23.20;87.70
47368;DHT22;34646;47.964;7.982;2023-06-26T19:07:51;22.90;87.60
47368;DHT22;34646;47.964;7.982;2023-06-26T19:19:53;23.10;87.70
47368;DHT22;34646;47.964;7.982;2023-06-26T19:25:54;23.30;87.80
47368;DHT22;34646;47.964;7.982;2023-06-26T19:31:56;23.40;87.90
47368;DHT22;34646;47.964;7.982;2023-06-26T19:38:00;23.30;87.80
47368;DHT22;34646;47.964;7.982;2023-06-26T19:44:00;23.50;87.80
47368;DHT22;34646;47.964;7.982;2023-06-26T19:50:01;23.10;87.40
47368;DHT22;34646;47.964;7.982;2023-06-26T19:56:02;22.90;87.00
47368;DHT22;34646;47.964;7.982;2023-06-26T20:02:06;22.90;87.00
47368;DHT22;34646;47.964;7.982;2023-06-26T20:14:07;23.00;86.70
47368;DHT22;34646;47.964;7.982;2023-06-26T20:20:08;23.10;86.70
47368;DHT22;34646;47.964;7.982;2023-06-26T20:26:09;23.30;86.70
47368;DHT22;34646;47.964;7.982;2023-06-26T20:32:10;23.50;86.80
47368;DHT22;34646;47.964;7.982;2023-06-26T20:38:11;22.90;86.50
47368;DHT22;34646;47.964;7.982;2023-06-26T20:44:12;23.10;86.50
47368;DHT22;34646;47.964;7.982;2023-06-26T20:50:13;22.90;86.10
47368;DHT22;34646;47.964;7.982;2023-06-26T20:56:14;22.70;85.90
47368;DHT22;34646;47.964;7.982;2023-06-26T21:02:15;23.00;86.60
47368;DHT22;34646;47.964;7.982;2023-06-26T21:08:15;23.00;86.40
47368;DHT22;34646;47.964;7.982;2023-06-26T21:14:16;22.80;85.60
47368;DHT22;34646;47.964;7.982;2023-06-26T21:20:17;23.20;86.30
47368;DHT22;34646;47.964;7.982;2023-06-26T21:32:19;23.10;83.90
47368;DHT22;34646;47.964;7.982;2023-06-26T21:38:20;23.00;85.30
47368;DHT22;34646;47.964;7.982;2023-06-26T21:44:21;23.40;85.30
47368;DHT22;34646;47.964;7.982;2023-06-26T21:50:22;23.20;85.00
47368;DHT22;34646;47.964;7.982;2023-06-26T21:56:22;23.20;83.50
47368;DHT22;34646;47.964;7.982;2023-06-26T22:08:24;23.30;84.70
47368;DHT22;34646;47.964;7.982;2023-06-26T22:14:25;23.10;84.60
47368;DHT22;34646;47.964;7.982;2023-06-26T22:26:26;23.20;84.40
47368;DHT22;34646;47.964;7.982;2023-06-26T22:32:27;23.00;84.30
47368;DHT22;34646;47.964;7.982;2023-06-26T22:38:28;23.10;84.20
47368;DHT22;34646;47.964;7.982;2023-06-26T22:44:28;23.00;84.20
47368;DHT22;34646;47.964;7.982;2023-06-26T22:50:29;23.00;83.90
47368;DHT22;34646;47.964;7.982;2023-06-26T22:56:30;22.50;83.60
47368;DHT22;34646;47.964;7.982;2023-06-26T23:02:30;22.80;83.60
47368;DHT22;34646;47.964;7.982;2023-06-26T23:08:31;23.40;83.90
47368;DHT22;34646;47.964;7.982;2023-06-26T23:14:32;23.10;83.60
47368;DHT22;34646;47.964;7.982;2023-06-26T23:26:34;22.70;83.10
47368;DHT22;34646;47.964;7.982;2023-06-26T23:32:38;23.10;83.20
47368;DHT22;34646;47.964;7.982;2023-06-26T23:38:42;22.60;83.00
47368;DHT22;34646;47.964;7.982;2023-06-26T23:44:43;22.70;83.00
47368;DHT22;34646;47.964;7.982;2023-06-26T23:50:49;22.90;82.90
47368;DHT22;34646;47.964;7.982;2023-06-26T23:56:50;23.20;83.10
